Time;durP1;ratioP1;P1;durP2;ratioP2;P2;SDS_P1;SDS_P2;PMS_P1;PMS_P2;Temp;Humidity;BMP_temperature;BMP_pressure;BME280_temperature;BME280_humidity;BME280_pressure;Samples;Min_cycle;Max_cycle;Signal;HPM_P1;HPM_P2
2021/12/10 00:00:15;;;;;;;45.80;41.80;;;;;;;23.06;30.70;94094.97;4971761;28;102851;-52
2021/12/10 00:02:45;;;;;;;42.43;38.83;;;;;;;23.05;30.36;94088.06;4979451;28;102798;-51
2021/12/10 00:05:16;;;;;;;47.97;44.00;;;;;;;23.06;30.59;94118.16;4974062;28;102718;-51
2021/12/10 00:07:42;;;;;;;45.23;41.33;;;;;;;23.05;30.83;94112.06;4960282;28;103317;-52
2021/12/10 00:10:12;;;;;;;43.20;39.43;;;;;;;23.04;30.77;94099.84;4978971;28;103194;-53
2021/12/10 00:12:44;;;;;;;46.20;42.17;;;;;;;23.04;30.91;94102.50;4978954;28;102792;-54
2021/12/10 00:15:09;;;;;;;43.53;39.77;;;;;;;23.03;30.41;94098.28;4977519;28;102728;-52
2021/12/10 00:17:35;;;;;;;43.60;39.90;;;;;;;23.03;30.39;94098.28;4974083;28;102848;-51
2021/12/10 00:20:02;;;;;;;45.13;41.23;;;;;;;23.03;30.72;94087.63;4977442;28;102831;-52
2021/12/10 00:22:38;;;;;;;45.80;41.90;;;;;;;22.98;30.69;94084.38;4979012;28;102877;-52
2021/12/10 00:25:07;;;;;;;45.63;41.57;;;;;;;23.03;30.74;94100.94;4978505;28;103760;-52
2021/12/10 00:27:33;;;;;;;45.37;41.47;;;;;;;23.00;30.92;94093.59;4973201;28;104521;-51
2021/12/10 00:30:24;;;;;;;44.50;40.67;;;;;;;23.02;30.69;94080.75;4975857;28;102644;-52
2021/12/10 00:33:01;;;;;;;43.80;39.97;;;;;;;23.03;30.76;94073.53;4971926;28;102750;-52
2021/12/10 00:35:29;;;;;;;43.73;39.93;;;;;;;23.02;30.24;94061.31;4977934;28;102698;-52
2021/12/10 00:37:55;;;;;;;43.47;39.70;;;;;;;22.96;30.52;94060.72;4974222;28;102840;-52
2021/12/10 00:40:22;;;;;;;42.80;39.00;;;;;;;22.98;30.59;94076.38;4977053;28;102861;-52
2021/12/10 00:42:48;;;;;;;43.90;40.00;;;;;;;23.01;30.56;94071.19;4978538;28;102722;-52
2021/12/10 00:45:16;;;;;;;44.47;40.67;;;;;;;22.98;30.37;94077.16;4978802;28;103110;-52
2021/12/10 00:47:42;;;;;;;45.43;41.50;;;;;;;23.01;30.75;94086.38;4978513;28;102734;-52
2021/12/10 00:50:11;;;;;;;43.53;39.77;;;;;;;23.01;30.31;94071.19;4972490;28;102800;-53
2021/12/10 00:52:37;;;;;;;47.07;42.90;;;;;;;23.01;30.74;94063.22;4978717;28;102718;-52
2021/12/10 00:55:05;;;;;;;43.43;39.73;;;;;;;22.98;30.38;94057.72;4978414;28;103203;-53
2021/12/10 00:57:31;;;;;;;44.03;40.17;;;;;;;23.01;30.49;94063.22;4977111;28;102867;-52
2021/12/10 00:59:56;;;;;;;42.57;38.97;;;;;;;23.01;30.29;94059.75;4973433;28;102764;-53
2021/12/10 01:02:24;;;;;;;46.07;41.97;;;;;;;22.99;30.71;94060.06;4977877;28;103053;-52
2021/12/10 01:04:54;;;;;;;45.33;41.23;;;;;;;23.01;30.51;94052.56;4977463;28;103270;-53
2021/12/10 01:07:24;;;;;;;45.00;40.73;;;;;;;22.99;30.48;94052.06;4978256;28;102999;-53
2021/12/10 01:09:52;;;;;;;44.33;40.63;;;;;;;23.00;30.48;94055.50;4978612;28;103166;-52
2021/12/10 01:12:35;;;;;;;43.43;39.63;;;;;;;23.01;30.69;94059.75;4973018;28;102792;-53
2021/12/10 01:15:40;;;;;;;45.67;41.60;;;;;;;23.01;30.75;94063.22;4977477;28;102672;-53
2021/12/10 01:23:52;;;;;;;42.37;38.67;;;;;;;23.01;30.45;94052.56;4972402;28;102898;-52
2021/12/10 01:26:51;;;;;;;45.43;41.43;;;;;;;23.00;30.69;94060.84;4978289;28;102824;-53
2021/12/10 01:29:30;;;;;;;40.87;37.37;;;;;;;23.00;30.71;94061.63;4977731;28;103605;-53
2021/12/10 01:31:57;;;;;;;39.30;35.93;;;;;;;22.99;30.74;94044.09;4959132;28;102762;-52
2021/12/10 01:34:23;;;;;;;40.73;37.30;;;;;;;22.99;30.54;94040.66;4972177;28;102780;-53
2021/12/10 01:36:49;;;;;;;40.00;36.70;;;;;;;22.98;30.37;94039.88;4978257;28;102996;-52
2021/12/10 01:39:24;;;;;;;40.60;37.07;;;;;;;22.99;30.66;94048.63;4978202;28;103260;-52
2021/12/10 01:42:03;;;;;;;38.07;34.90;;;;;;;22.99;30.26;94030.00;4975328;28;102827;-53
2021/12/10 01:44:36;;;;;;;40.43;36.93;;;;;;;22.93;30.36;94008.13;4975803;28;102680;-53
2021/12/10 01:47:06;;;;;;;40.63;37.23;;;;;;;22.99;30.35;94014.78;4980763;28;103019;-53
2021/12/10 01:49:32;;;;;;;37.70;34.60;;;;;;;22.90;30.31;94008.78;4981034;28;103283;-53
2021/12/10 01:51:58;;;;;;;37.60;34.50;;;;;;;22.98;30.53;94031.88;4981398;28;103263;-52
2021/12/10 01:54:32;;;;;;;37.50;34.20;;;;;;;22.99;30.45;94032.66;4981968;28;102805;-52
2021/12/10 01:57:00;;;;;;;37.37;34.30;;;;;;;22.99;30.20;94032.66;4974441;28;102920;-52
2021/12/10 01:59:29;;;;;;;36.80;33.73;;;;;;;22.97;30.67;94014.34;4979690;28;102653;-52
2021/12/10 02:01:58;;;;;;;36.77;33.50;;;;;;;22.98;30.68;93996.47;4981008;28;102767;-53
2021/12/10 02:04:27;;;;;;;36.23;33.23;;;;;;;22.92;30.61;94000.47;4980844;28;102999;-52
2021/12/10 02:06:54;;;;;;;36.53;33.43;;;;;;;22.97;30.71;94013.56;4975291;28;104525;-52
2021/12/10 02:09:20;;;;;;;36.90;33.70;;;;;;;22.98;30.25;94002.56;4981215;28;103342;-52
2021/12/10 02:11:46;;;;;;;35.77;32.80;;;;;;;22.97;30.92;94000.25;4980535;28;102854;-53
2021/12/10 02:14:12;;;;;;;35.00;31.80;;;;;;;22.97;30.66;93997.56;4980576;28;103157;-53
2021/12/10 02:16:38;;;;;;;36.87;33.77;;;;;;;22.96;30.61;94004.78;4980166;28;103280;-53
2021/12/10 02:19:09;;;;;;;36.03;33.03;;;;;;;22.97;30.34;94005.56;4975261;28;103487;-53
2021/12/10 02:21:37;;;;;;;36.13;33.13;;;;;;;22.97;30.35;93984.25;4980025;28;102692;-52
2021/12/10 02:24:04;;;;;;;35.03;32.10;;;;;;;22.94;30.65;93977.72;4980878;28;102863;-53
2021/12/10 02:26:34;;;;;;;36.73;33.60;;;;;;;22.97;30.71;93982.38;4979700;28;103729;-52
2021/12/10 02:29:00;;;;;;;34.83;31.90;;;;;;;22.97;30.42;93982.38;4975803;28;102554;-53
2021/12/10 02:31:27;;;;;;;34.50;31.50;;;;;;;22.97;30.37;93985.03;4980230;28;103318;-52
2021/12/10 02:33:54;;;;;;;35.03;32.03;;;;;;;22.97;30.51;93981.59;4980827;28;102761;-52
2021/12/10 02:36:20;;;;;;;38.20;34.90;;;;;;;22.96;30.72;93969.38;4979740;28;104193;-52
2021/12/10 02:38:50;;;;;;;34.87;31.77;;;;;;;22.89;30.74;93963.84;4981029;28;102709;-52
2021/12/10 02:41:18;;;;;;;36.93;33.83;;;;;;;22.96;30.32;93986.16;4974200;28;102617;-53
2021/12/10 02:43:45;;;;;;;33.73;30.83;;;;;;;22.96;30.78;94004.78;4981228;28;102828;-52
2021/12/10 02:46:12;;;;;;;34.37;31.47;;;;;;;22.93;30.52;93994.03;4979620;28;103173;-53
2021/12/10 02:48:38;;;;;;;35.53;32.50;;;;;;;22.88;30.55;93995.03;4980162;28;102681;-53
2021/12/10 02:51:06;;;;;;;34.53;31.63;;;;;;;22.94;30.19;94004.34;4973663;28;102787;-53
2021/12/10 02:53:36;;;;;;;39.97;36.47;;;;;;;22.96;30.61;94006.69;4980030;28;102727;-53
2021/12/10 02:56:03;;;;;;;35.27;32.27;;;;;;;22.95;30.20;93999.78;4979053;28;103522;-52
2021/12/10 02:58:28;;;;;;;38.00;34.47;;;;;;;22.95;30.67;93997.13;4980438;28;104334;-53
2021/12/10 03:00:59;;;;;;;34.93;32.00;;;;;;;22.95;30.42;93994.47;4979841;28;102796;-52
2021/12/10 03:03:25;;;;;;;41.90;38.13;;;;;;;22.94;30.60;94004.34;4976904;28;102793;-53
2021/12/10 03:05:51;;;;;;;37.23;34.03;;;;;;;22.91;30.79;94006.91;4979193;28;102926;-52
2021/12/10 03:08:18;;;;;;;36.33;33.30;;;;;;;22.93;30.62;94008.13;4980534;28;102713;-52
2021/12/10 03:10:43;;;;;;;36.93;33.77;;;;;;;22.95;30.63;94011.22;4978538;28;102652;-53
2021/12/10 03:13:09;;;;;;;35.83;32.80;;;;;;;22.94;30.79;94014.22;4975354;28;103109;-52
2021/12/10 03:15:35;;;;;;;35.07;32.17;;;;;;;22.93;30.52;94000.13;4979798;28;104275;-53
2021/12/10 03:18:05;;;;;;;37.50;34.20;;;;;;;22.94;30.57;93988.38;4979323;28;103527;-52
2021/12/10 03:20:31;;;;;;;35.43;32.43;;;;;;;22.93;30.38;93970.81;4979896;28;103275;-52
2021/12/10 03:22:58;;;;;;;35.93;32.77;;;;;;;22.93;30.81;93978.81;4979785;28;102727;-52
2021/12/10 03:25:24;;;;;;;35.03;32.07;;;;;;;22.75;30.95;93964.88;4956261;28;104237;-52
2021/12/10 03:27:50;;;;;;;32.60;29.80;;;;;;;22.94;30.42;93993.69;4960768;28;102651;-52
2021/12/10 03:30:22;;;;;;;31.63;29.00;;;;;;;22.87;30.28;93985.47;4979343;28;103977;-53
2021/12/10 03:32:49;;;;;;;31.63;28.93;;;;;;;22.93;30.81;94000.13;4979197;28;102615;-52
2021/12/10 03:35:25;;;;;;;31.70;28.90;;;;;;;22.94;30.75;94009.69;4979321;28;103172;-53
2021/12/10 03:37:51;;;;;;;32.40;29.67;;;;;;;22.90;30.72;94008.78;4979964;28;102838;-52
2021/12/10 03:40:18;;;;;;;32.27;29.57;;;;;;;22.87;30.50;93982.81;4979313;28;102837;-52
2021/12/10 03:42:45;;;;;;;30.90;28.27;;;;;;;22.93;30.47;93992.13;4980269;28;103369;-52
2021/12/10 03:45:14;;;;;;;29.20;26.77;;;;;;;22.94;30.83;93985.69;4974762;28;103473;-52
2021/12/10 03:47:41;;;;;;;29.37;26.77;;;;;;;22.95;30.65;93989.91;4958739;28;103403;-53
2021/12/10 03:50:08;;;;;;;30.23;27.70;;;;;;;22.95;30.71;94003.25;4978617;28;102718;-53
2021/12/10 03:52:34;;;;;;;28.70;26.20;;;;;;;22.95;30.97;94003.25;4979868;28;102746;-53
2021/12/10 03:55:01;;;;;;;28.70;26.30;;;;;;;22.96;30.24;94015.44;4979128;28;103491;-53
2021/12/10 03:57:27;;;;;;;29.03;26.37;;;;;;;22.91;30.51;94004.22;4973408;28;102739;-53
2021/12/10 03:59:52;;;;;;;27.53;25.13;;;;;;;22.94;30.53;94009.69;4978998;28;102704;-52
2021/12/10 04:02:18;;;;;;;27.80;25.50;;;;;;;22.97;30.72;94016.22;4978226;28;102827;-52
2021/12/10 04:04:47;;;;;;;28.47;26.00;;;;;;;22.97;30.69;94009.00;4978799;28;102861;-52
2021/12/10 04:07:20;;;;;;;25.10;23.10;;;;;;;22.95;31.07;94005.91;4973505;28;103341;-52
2021/12/10 04:09:46;;;;;;;23.70;21.60;;;;;;;23.03;30.76;94014.94;4978732;28;103328;-54
2021/12/10 04:12:12;;;;;;;23.73;21.80;;;;;;;23.03;30.72;94007.72;4978071;28;102762;-54
2021/12/10 04:14:39;;;;;;;23.67;21.67;;;;;;;23.06;30.78;94007.03;4979049;28;102714;-54
2021/12/10 04:17:06;;;;;;;22.03;20.10;;;;;;;23.00;30.84;94003.00;4978663;28;102904;-54
2021/12/10 04:19:34;;;;;;;19.70;18.00;;;;;;;23.11;30.60;94020.13;4973093;28;102691;-53
2021/12/10 04:22:03;;;;;;;19.53;17.73;;;;;;;23.13;30.78;94021.69;4978568;28;102753;-53
2021/12/10 04:24:32;;;;;;;17.63;16.13;;;;;;;23.11;30.61;94020.13;4987751;28;102804;-54
2021/12/10 04:27:00;;;;;;;16.80;15.30;;;;;;;23.13;30.64;94017.16;4991278;28;102725;-53
2021/12/10 04:29:25;;;;;;;16.53;15.17;;;;;;;23.09;30.80;94013.59;4991572;28;103539;-54
2021/12/10 04:31:54;;;;;;;15.77;13.23;;;;;;;23.11;30.69;94020.13;4998861;28;102988;-53
2021/12/10 04:34:21;;;;;;;15.00;13.70;;;;;;;23.17;30.73;94018.03;4998640;28;103047;-53
2021/12/10 04:36:48;;;;;;;15.93;14.40;;;;;;;23.21;30.94;94026.16;4986751;28;102772;-53
2021/12/10 04:39:14;;;;;;;14.53;13.17;;;;;;;23.15;30.97;94009.59;4986016;28;103117;-54
2021/12/10 04:41:39;;;;;;;14.80;13.60;;;;;;;23.40;31.15;94027.19;4974331;28;102837;-51
2021/12/10 04:44:05;;;;;;;14.07;12.77;;;;;;;23.57;30.96;94034.22;4981546;28;103444;-52
2021/12/10 04:46:31;;;;;;;15.27;13.87;;;;;;;23.52;30.78;94020.31;4977263;28;103086;-51
2021/12/10 04:49:06;;;;;;;14.70;13.40;;;;;;;23.56;31.18;94019.31;4978122;28;102738;-51
2021/12/10 04:51:39;;;;;;;14.70;13.30;;;;;;;23.67;30.96;94027.66;4974791;28;103369;-52
2021/12/10 04:54:07;;;;;;;14.93;13.60;;;;;;;23.65;31.51;94024.53;4976985;28;102871;-54
2021/12/10 04:56:33;;;;;;;14.03;12.63;;;;;;;23.55;31.39;94032.97;4976590;28;103337;-54
2021/12/10 04:59:02;;;;;;;14.93;13.30;;;;;;;23.46;31.39;94025.06;4976828;28;102632;-55
2021/12/10 05:01:29;;;;;;;14.97;13.37;;;;;;;23.44;31.37;94024.63;4976871;28;102873;-55
2021/12/10 05:03:55;;;;;;;15.80;13.90;;;;;;;23.27;31.57;93996.28;4963927;28;104307;-55
2021/12/10 05:06:20;;;;;;;15.73;12.77;;;;;;;23.46;31.48;94022.41;4979431;28;103595;-55
2021/12/10 05:08:46;;;;;;;14.10;12.67;;;;;;;23.50;31.74;94025.94;4978701;28;103055;-54
2021/12/10 05:11:12;;;;;;;13.57;12.17;;;;;;;23.52;31.81;94041.66;4973098;28;103302;-54
2021/12/10 05:13:41;;;;;;;13.23;11.83;;;;;;;23.50;31.65;94047.28;4968991;28;103072;-54
2021/12/10 05:16:08;;;;;;;14.10;12.70;;;;;;;23.59;31.96;94061.31;4968383;28;103590;-54
2021/12/10 05:18:37;;;;;;;13.63;12.33;;;;;;;23.69;32.38;94036.13;4978169;28;103404;-54
2021/12/10 05:21:05;;;;;;;14.47;13.00;;;;;;;23.80;32.86;94041.78;4992131;28;102779;-54
2021/12/10 05:23:32;;;;;;;14.00;12.67;;;;;;;23.84;32.39;94035.41;4974888;28;102755;-53
2021/12/10 05:25:58;;;;;;;15.27;13.77;;;;;;;23.89;32.62;94042.44;4974518;28;103609;-55
2021/12/10 05:28:24;;;;;;;13.37;12.17;;;;;;;23.86;32.99;94045.78;4981910;28;102678;-54
2021/12/10 05:30:54;;;;;;;14.07;12.13;;;;;;;23.65;32.65;94025.31;4979979;28;102703;-54
2021/12/10 05:33:21;;;;;;;14.03;12.50;;;;;;;23.66;32.51;94026.88;4978835;28;103936;-55
2021/12/10 05:35:48;;;;;;;14.17;12.60;;;;;;;23.56;32.75;94029.97;4956600;28;102716;-54
2021/12/10 05:38:18;;;;;;;13.47;12.20;;;;;;;23.61;32.84;94047.66;4980894;28;102948;-54
2021/12/10 05:40:46;;;;;;;11.93;10.83;;;;;;;23.58;32.63;94053.66;4981003;28;102799;-54
2021/12/10 05:43:11;;;;;;;13.13;11.93;;;;;;;23.43;32.34;94036.41;4979762;28;102751;-54
2021/12/10 05:45:38;;;;;;;13.27;11.97;;;;;;;23.53;32.57;94051.97;4962226;28;102772;-54
2021/12/10 05:48:04;;;;;;;13.37;12.17;;;;;;;23.48;32.25;94057.50;4975906;28;102798;-54
2021/12/10 05:50:30;;;;;;;13.37;12.10;;;;;;;23.41;32.46;94054.63;4981784;28;102813;-54
2021/12/10 05:52:57;;;;;;;14.10;12.80;;;;;;;23.38;32.55;94053.41;4980671;28;102953;-54
2021/12/10 05:55:23;;;;;;;13.60;12.50;;;;;;;23.35;32.16;94040.75;4981155;28;102603;-54
2021/12/10 05:57:48;;;;;;;13.70;12.40;;;;;;;23.34;32.40;94043.72;4977002;28;102934;-54
2021/12/10 06:00:20;;;;;;;14.40;12.70;;;;;;;23.32;32.23;94030.72;4981984;28;102772;-54
2021/12/10 06:02:45;;;;;;;15.07;13.67;;;;;;;23.30;32.50;94027.59;4980888;28;103492;-54
2021/12/10 06:05:11;;;;;;;14.37;12.97;;;;;;;23.24;31.97;94030.81;4981440;28;103216;-54
2021/12/10 06:07:38;;;;;;;14.50;13.30;;;;;;;23.30;32.29;94058.81;4981170;28;102840;-54
2021/12/10 06:10:05;;;;;;;15.87;14.37;;;;;;;23.26;31.86;94039.28;4976741;28;102886;-54
2021/12/10 06:12:31;;;;;;;14.27;13.00;;;;;;;23.24;32.28;94023.63;4981669;28;103101;-54
2021/12/10 06:14:57;;;;;;;15.80;14.40;;;;;;;23.25;31.83;94035.81;4980643;28;102979;-54
2021/12/10 06:17:23;;;;;;;15.77;14.37;;;;;;;23.17;32.10;94018.03;4981000;28;102712;-54
2021/12/10 06:19:48;;;;;;;15.53;14.13;;;;;;;23.04;31.79;94000.50;4976333;28;102702;-54
2021/12/10 06:22:14;;;;;;;15.73;14.43;;;;;;;23.22;32.21;94019.72;4980608;28;102981;-54
2021/12/10 06:24:39;;;;;;;14.57;13.27;;;;;;;23.21;31.92;94021.63;4980851;28;102709;-54
2021/12/10 06:27:05;;;;;;;16.37;15.00;;;;;;;23.19;32.17;94026.50;4980643;28;102615;-53
2021/12/10 06:29:31;;;;;;;15.57;14.30;;;;;;;23.20;32.28;94021.94;4980275;28;103133;-54
2021/12/10 06:31:57;;;;;;;16.13;14.73;;;;;;;23.21;31.84;94023.50;4975500;28;102822;-54
2021/12/10 06:34:23;;;;;;;15.13;13.83;;;;;;;23.16;31.89;94010.38;4981371;28;103349;-54
2021/12/10 06:36:49;;;;;;;16.07;14.67;;;;;;;23.13;31.94;94016.38;4981215;28;103174;-54
2021/12/10 06:39:20;;;;;;;16.30;15.00;;;;;;;23.15;31.88;94014.94;4981474;28;102776;-54
2021/12/10 06:41:53;;;;;;;15.90;14.40;;;;;;;23.17;31.75;94018.03;4975224;28;105276;-54
2021/12/10 06:44:19;;;;;;;15.60;14.30;;;;;;;23.14;31.96;93996.59;4980252;28;102936;-54
2021/12/10 06:46:45;;;;;;;15.53;14.23;;;;;;;23.13;31.91;93995.06;4980845;28;102789;-54
2021/12/10 06:49:12;;;;;;;15.90;14.50;;;;;;;23.17;31.63;93987.94;4980950;28;102747;-54
2021/12/10 06:51:38;;;;;;;15.77;14.40;;;;;;;23.17;32.03;93995.94;4979676;28;103415;-54
2021/12/10 06:54:03;;;;;;;14.67;13.37;;;;;;;23.17;31.49;93995.94;4975772;28;102893;-54
2021/12/10 06:56:31;;;;;;;15.40;14.10;;;;;;;23.10;31.77;93997.28;4962087;28;103111;-54
2021/12/10 06:58:57;;;;;;;15.20;14.00;;;;;;;23.15;31.53;94003.50;4979889;28;102641;-54
2021/12/10 07:01:27;;;;;;;16.10;14.70;;;;;;;23.16;31.63;94005.03;4980021;28;102620;-54
2021/12/10 07:03:55;;;;;;;15.60;14.30;;;;;;;23.14;31.97;94004.59;4973744;28;104166;-54
2021/12/10 07:06:24;;;;;;;15.40;14.10;;;;;;;23.16;31.55;94010.38;4980323;28;103612;-54
2021/12/10 07:08:50;;;;;;;14.47;13.27;;;;;;;23.15;31.61;94016.81;4980936;28;102719;-54
2021/12/10 07:11:19;;;;;;;16.60;15.10;;;;;;;23.14;31.55;94002.72;4980295;28;103294;-54
2021/12/10 07:13:49;;;;;;;15.10;13.90;;;;;;;23.15;32.09;94011.47;4980306;28;103369;-54
2021/12/10 07:16:16;;;;;;;15.50;14.20;;;;;;;23.14;31.54;94015.25;4973853;28;102754;-54
2021/12/10 07:18:42;;;;;;;16.40;13.87;;;;;;;23.08;31.94;94012.03;4980424;28;103051;-54
2021/12/10 07:21:08;;;;;;;17.23;15.73;;;;;;;23.15;31.64;94027.47;4979724;28;102645;-54
2021/12/10 07:23:33;;;;;;;15.17;13.93;;;;;;;23.14;31.93;94013.38;4979555;28;102867;-53
2021/12/10 07:25:59;;;;;;;15.63;14.33;;;;;;;23.14;31.65;94023.25;4973679;28;102827;-54
2021/12/10 07:28:24;;;;;;;14.93;13.70;;;;;;;23.09;31.47;94016.25;4980235;28;102961;-54
2021/12/10 07:30:51;;;;;;;14.80;13.50;;;;;;;23.15;31.53;94035.47;4980144;28;102845;-54
2021/12/10 07:33:18;;;;;;;16.00;14.60;;;;;;;23.13;31.56;94029.69;4978550;28;103471;-54
2021/12/10 07:35:46;;;;;;;16.50;15.20;;;;;;;23.20;32.24;94036.06;4979811;28;103056;-54
2021/12/10 07:38:11;;;;;;;17.07;15.67;;;;;;;23.29;31.93;94030.59;4975582;28;102744;-54
2021/12/10 07:40:38;;;;;;;17.17;15.67;;;;;;;23.34;31.74;94027.72;4978182;28;102685;-53
2021/12/10 07:43:05;;;;;;;17.23;15.77;;;;;;;23.34;32.05;94019.72;4979744;28;102935;-53
2021/12/10 07:45:31;;;;;;;17.30;15.90;;;;;;;23.35;32.15;94014.09;4979831;28;102083;-53
2021/12/10 07:47:59;;;;;;;16.37;15.07;;;;;;;23.39;32.00;94017.63;4974650;28;103313;-53
2021/12/10 07:50:30;;;;;;;16.97;15.50;;;;;;;23.39;32.09;94011.53;4979095;28;104830;-53
2021/12/10 07:52:56;;;;;;;17.27;15.87;;;;;;;23.36;32.19;94007.66;4979361;28;103651;-52
2021/12/10 07:55:28;;;;;;;17.60;16.17;;;;;;;23.34;32.04;94007.16;4979424;28;103516;-54
2021/12/10 07:57:54;;;;;;;18.10;16.63;;;;;;;23.28;31.85;94002.41;4980132;28;103148;-54
2021/12/10 08:00:24;;;;;;;17.47;15.90;;;;;;;23.25;31.78;94003.06;4975141;28;102955;-54
2021/12/10 08:02:49;;;;;;;18.80;17.10;;;;;;;23.18;32.25;94005.47;4978818;28;102665;-54
2021/12/10 08:05:16;;;;;;;17.13;15.73;;;;;;;23.27;31.76;94016.84;4977852;28;102731;-54
2021/12/10 08:07:42;;;;;;;18.17;16.60;;;;;;;23.27;32.10;94022.94;4979640;28;103287;-54
2021/12/10 08:10:11;;;;;;;18.03;16.50;;;;;;;23.24;31.75;94004.97;4973860;28;103111;-54
2021/12/10 08:12:36;;;;;;;19.10;17.50;;;;;;;23.24;31.69;94012.19;4978986;28;102677;-54
2021/12/10 08:15:04;;;;;;;18.87;17.27;;;;;;;23.23;32.00;94006.06;4979540;28;102709;-54
2021/12/10 08:17:29;;;;;;;17.10;15.60;;;;;;;23.23;32.12;94010.63;4979038;28;102961;-54
2021/12/10 08:19:56;;;;;;;18.73;17.13;;;;;;;23.26;31.84;94009.94;4979110;28;103333;-55
2021/12/10 08:22:21;;;;;;;19.60;17.90;;;;;;;23.24;31.73;94023.63;4974128;28;102752;-54
2021/12/10 08:24:47;;;;;;;17.50;16.10;;;;;;;23.24;32.10;94028.94;4979337;28;103015;-54
2021/12/10 08:27:13;;;;;;;18.47;16.77;;;;;;;23.27;31.88;94016.84;4978695;28;102877;-54
2021/12/10 08:29:41;;;;;;;19.67;17.97;;;;;;;22.93;31.70;93949.53;4969678;28;104393;-54
2021/12/10 08:32:08;;;;;;;21.57;19.77;;;;;;;23.18;32.00;93984.16;4953512;28;102640;-54
2021/12/10 08:34:33;;;;;;;22.53;20.73;;;;;;;23.27;32.15;93998.19;4959129;28;103235;-54
2021/12/10 08:36:59;;;;;;;26.27;24.07;;;;;;;23.30;31.93;94014.28;4959735;28;103297;-54
2021/12/10 08:39:28;;;;;;;26.30;24.00;;;;;;;23.30;32.23;94022.28;4959282;28;103328;-56
2021/12/10 08:41:56;;;;;;;25.83;23.63;;;;;;;23.30;31.94;94016.16;4958677;28;102819;-55
2021/12/10 08:44:22;;;;;;;26.57;24.20;;;;;;;23.18;32.07;94005.47;4953228;28;102953;-55
2021/12/10 08:46:48;;;;;;;24.83;22.80;;;;;;;23.27;31.88;94016.84;4959276;28;102731;-54
2021/12/10 08:49:14;;;;;;;22.93;20.97;;;;;;;23.26;31.93;94007.28;4958613;28;102724;-55
2021/12/10 08:51:50;;;;;;;23.90;21.93;;;;;;;23.24;32.22;94001.50;4958412;28;103399;-54
2021/12/10 08:54:17;;;;;;;25.87;23.77;;;;;;;23.06;31.78;93985.72;4953409;28;102673;-54
2021/12/10 08:56:45;;;;;;;27.40;25.20;;;;;;;23.23;32.15;94011.41;4958365;28;102784;-54
2021/12/10 08:59:12;;;;;;;28.53;26.10;;;;;;;23.22;32.10;93998.41;4958749;28;103239;-55
2021/12/10 09:01:42;;;;;;;27.10;24.80;;;;;;;23.23;32.08;94008.72;4940389;28;103174;-55
2021/12/10 09:04:11;;;;;;;24.80;22.80;;;;;;;23.24;32.32;94006.84;4958370;28;102993;-55
2021/12/10 09:06:40;;;;;;;24.90;22.80;;;;;;;23.19;31.85;93994.53;4953643;28;103434;-55
2021/12/10 09:09:09;;;;;;;25.67;23.47;;;;;;;23.31;31.91;93996.41;4959049;28;103347;-52
2021/12/10 09:11:36;;;;;;;24.80;22.70;;;;;;;23.36;31.71;94009.53;4958334;28;103034;-53
2021/12/10 09:14:02;;;;;;;24.80;22.70;;;;;;;23.37;31.94;93997.75;4958767;28;103381;-53
2021/12/10 09:16:30;;;;;;;23.67;21.77;;;;;;;23.42;31.74;93997.53;4953610;28;102787;-53
2021/12/10 09:19:02;;;;;;;23.10;21.20;;;;;;;23.40;31.85;93975.75;4939842;28;102725;-53
2021/12/10 09:21:29;;;;;;;24.07;22.07;;;;;;;23.46;31.80;93970.97;4958775;28;102711;-52
2021/12/10 09:24:00;;;;;;;22.57;20.87;;;;;;;23.40;31.71;93963.22;4958760;28;102897;-52
2021/12/10 09:26:27;;;;;;;23.73;21.73;;;;;;;23.40;31.63;93978.44;4958535;28;102504;-52
2021/12/10 09:28:56;;;;;;;20.93;19.27;;;;;;;23.48;31.37;93988.19;4955652;28;102838;-52
2021/12/10 09:31:24;;;;;;;22.57;20.77;;;;;;;23.50;31.62;93985.97;4977937;28;103356;-52
2021/12/10 09:33:56;;;;;;;21.07;19.37;;;;;;;23.50;31.39;93985.19;4977775;28;102830;-53
2021/12/10 09:36:22;;;;;;;20.90;19.30;;;;;;;23.49;31.52;93986.31;4979008;28;102640;-53
2021/12/10 09:38:48;;;;;;;22.27;20.47;;;;;;;23.53;31.18;93973.88;4973339;28;103249;-52
2021/12/10 09:41:14;;;;;;;22.40;20.50;;;;;;;23.52;31.50;93953.66;4977777;28;102559;-52
2021/12/10 09:43:40;;;;;;;22.00;20.20;;;;;;;23.60;31.39;93950.13;4977518;28;102770;-52
2021/12/10 09:46:07;;;;;;;21.60;19.80;;;;;;;23.58;31.22;93945.13;4978567;28;102789;-52
2021/12/10 09:48:33;;;;;;;20.80;19.20;;;;;;;23.61;30.85;93943.66;4978186;28;104353;-53
2021/12/10 09:51:05;;;;;;;20.70;19.00;;;;;;;23.66;30.96;93960.22;4973039;28;103725;-52
2021/12/10 09:53:33;;;;;;;20.43;18.83;;;;;;;23.63;31.04;93957.44;4978154;28;103851;-53
2021/12/10 09:56:00;;;;;;;19.60;18.00;;;;;;;23.65;31.13;93955.22;4978138;28;102799;-53
2021/12/10 09:58:26;;;;;;;20.93;19.20;;;;;;;23.63;30.95;93970.78;4978066;28;102755;-53
2021/12/10 10:00:59;;;;;;;19.33;17.73;;;;;;;23.63;31.28;93966.22;4972661;28;103379;-53
2021/12/10 10:03:28;;;;;;;19.40;17.80;;;;;;;23.63;31.37;93965.44;4976547;28;103164;-53
2021/12/10 10:05:55;;;;;;;19.80;18.10;;;;;;;23.64;31.32;93951.00;4981729;28;103306;-53
2021/12/10 10:08:24;;;;;;;20.00;18.30;;;;;;;23.63;30.79;93944.09;4980615;28;102668;-53
2021/12/10 10:10:52;;;;;;;19.50;17.87;;;;;;;23.57;31.08;93919.56;4976285;28;103780;-53
2021/12/10 10:13:21;;;;;;;18.77;17.17;;;;;;;23.61;31.57;93936.44;4980402;28;104770;-52
2021/12/10 10:15:49;;;;;;;18.37;16.87;;;;;;;23.63;31.13;93939.56;4980631;28;102669;-53
2021/12/10 10:18:16;;;;;;;18.70;17.10;;;;;;;23.67;31.41;93932.41;4980407;28;102689;-53
2021/12/10 10:20:45;;;;;;;18.73;17.20;;;;;;;23.67;30.78;93929.75;4980108;28;103490;-53
2021/12/10 10:23:12;;;;;;;18.17;16.67;;;;;;;23.63;30.87;93918.22;4975207;28;104269;-53
2021/12/10 10:25:41;;;;;;;18.53;17.03;;;;;;;23.63;30.95;93923.56;4981153;28;102736;-53
2021/12/10 10:28:10;;;;;;;17.60;16.20;;;;;;;23.70;31.40;93918.44;4980818;28;102936;-53
2021/12/10 10:30:43;;;;;;;17.67;16.30;;;;;;;23.74;31.35;93920.44;4964571;28;102783;-53
2021/12/10 10:33:10;;;;;;;17.90;16.50;;;;;;;23.77;31.20;93907.19;4955284;28;103188;-53
2021/12/10 10:35:50;;;;;;;17.70;16.20;;;;;;;23.78;31.22;93908.75;4960963;28;102675;-53
2021/12/10 10:38:16;;;;;;;17.53;16.13;;;;;;;23.76;30.77;93896.88;4961144;28;104308;-53
2021/12/10 10:40:48;;;;;;;18.30;16.80;;;;;;;23.75;30.81;93896.09;4960716;28;102773;-53
2021/12/10 10:43:14;;;;;;;16.93;15.53;;;;;;;23.74;31.07;93897.19;4961239;28;102656;-53
2021/12/10 10:45:44;;;;;;;16.10;14.80;;;;;;;23.75;31.21;93913.97;4938363;28;103196;-53
2021/12/10 10:48:11;;;;;;;16.70;15.30;;;;;;;23.76;31.32;93899.53;4959851;28;102854;-53
2021/12/10 10:51:00;;;;;;;16.47;15.17;;;;;;;23.75;31.21;93897.97;4959711;28;102664;-53
2021/12/10 10:53:31;;;;;;;16.07;14.57;;;;;;;23.74;30.70;93899.88;4960522;28;102869;-53
2021/12/10 10:56:07;;;;;;;16.53;15.17;;;;;;;23.76;31.17;93899.53;4955288;28;102889;-53
2021/12/10 10:58:36;;;;;;;16.50;15.10;;;;;;;23.75;31.27;93897.97;4959886;28;103355;-53
2021/12/10 11:01:21;;;;;;;16.03;14.63;;;;;;;23.76;30.77;93899.53;4960283;28;103198;-52
2021/12/10 11:03:53;;;;;;;15.47;14.17;;;;;;;23.76;30.91;93899.53;4960078;28;102586;-52
2021/12/10 11:06:26;;;;;;;15.37;14.10;;;;;;;23.75;31.18;93898.75;4955259;28;102689;-53
2021/12/10 11:08:55;;;;;;;15.27;14.13;;;;;;;23.76;31.32;93899.53;4959350;28;103124;-53
2021/12/10 11:11:34;;;;;;;15.10;14.00;;;;;;;23.75;31.16;93896.09;4959751;28;103441;-53
2021/12/10 11:14:06;;;;;;;15.80;14.60;;;;;;;23.76;31.16;93902.19;4960137;28;103040;-53
2021/12/10 11:16:34;;;;;;;15.23;14.07;;;;;;;23.76;30.81;93896.88;4960692;28;102785;-53
2021/12/10 11:19:27;;;;;;;14.90;13.70;;;;;;;23.75;31.16;93908.66;4954238;28;102711;-53